createdAt,value
2018-07-08T00:00:20.132Z,2.27
2018-07-08T00:02:54.480Z,2.13
2018-07-08T00:05:28.937Z,2.13
2018-07-08T00:08:03.638Z,2.50
2018-07-08T00:10:40.553Z,2.63
2018-07-08T00:13:14.948Z,2.43
2018-07-08T00:15:49.752Z,2.13
2018-07-08T00:18:25.048Z,2.30
2018-07-08T00:20:59.508Z,2.00
2018-07-08T00:23:33.908Z,2.10
2018-07-08T00:26:08.380Z,2.10
2018-07-08T00:28:42.805Z,2.37
2018-07-08T00:31:17.211Z,2.10
2018-07-08T00:33:51.599Z,2.17
2018-07-08T00:36:26.010Z,2.33
2018-07-08T00:39:00.476Z,3.17
2018-07-08T00:41:34.887Z,2.40
2018-07-08T00:44:09.347Z,2.20
2018-07-08T00:46:43.900Z,2.57
2018-07-08T00:49:18.428Z,2.47
2018-07-08T00:51:52.922Z,2.73
2018-07-08T00:54:27.593Z,2.50
2018-07-08T00:57:02.187Z,3.17
2018-07-08T00:59:36.705Z,2.90
2018-07-08T01:02:11.416Z,2.40
2018-07-08T01:04:46.032Z,2.63
2018-07-08T01:07:20.610Z,2.60
2018-07-08T01:09:55.239Z,2.60
2018-07-08T01:12:29.778Z,2.93
2018-07-08T01:15:05.005Z,2.87
2018-07-08T01:17:39.398Z,3.07
2018-07-08T01:20:14.090Z,2.80
2018-07-08T01:22:48.708Z,2.80
2018-07-08T01:25:34.571Z,2.90
2018-07-08T01:28:09.040Z,2.90
2018-07-08T01:30:43.551Z,3.10
2018-07-08T01:33:18.003Z,3.70
2018-07-08T01:35:52.460Z,3.13
2018-07-08T01:38:26.993Z,3.07
2018-07-08T01:41:01.469Z,3.87
2018-07-08T01:43:35.884Z,3.63
2018-07-08T01:46:10.492Z,4.20
2018-07-08T01:48:45.048Z,3.30
2018-07-08T01:51:19.691Z,3.73
2018-07-08T01:53:54.132Z,3.37
2018-07-08T01:56:28.761Z,3.50
2018-07-08T01:59:03.266Z,3.73
2018-07-08T02:01:37.805Z,3.73
2018-07-08T02:04:12.482Z,3.87
2018-07-08T02:06:47.072Z,4.30
2018-07-08T02:09:21.542Z,3.80
2018-07-08T02:11:56.329Z,3.97
2018-07-08T02:14:30.827Z,4.03
2018-07-08T02:17:05.267Z,4.00
2018-07-08T02:19:39.813Z,4.10
2018-07-08T02:22:14.367Z,3.90
2018-07-08T02:24:49.140Z,4.37
2018-07-08T02:27:23.668Z,4.17
2018-07-08T02:29:58.155Z,4.77
2018-07-08T02:32:32.774Z,4.23
2018-07-08T02:35:07.303Z,4.57
2018-07-08T02:37:41.918Z,4.67
2018-07-08T02:40:16.545Z,4.37
2018-07-08T02:42:51.032Z,4.93
2018-07-08T02:45:25.616Z,4.50
2018-07-08T02:48:00.452Z,4.73
2018-07-08T02:50:35.258Z,4.40
2018-07-08T02:53:09.823Z,4.40
2018-07-08T02:55:44.316Z,4.70
2018-07-08T02:58:18.779Z,4.40
2018-07-08T03:00:53.373Z,4.53
2018-07-08T03:03:27.966Z,4.33
2018-07-08T03:06:02.480Z,4.97
2018-07-08T03:08:37.008Z,4.63
2018-07-08T03:11:11.471Z,4.20
2018-07-08T03:13:46.197Z,4.23
2018-07-08T03:16:20.693Z,4.67
2018-07-08T03:18:55.088Z,4.83
2018-07-08T03:21:29.636Z,4.50
2018-07-08T03:24:04.060Z,4.53
2018-07-08T03:26:38.503Z,4.77
2018-07-08T03:29:12.947Z,4.63
2018-07-08T03:31:47.371Z,4.93
2018-07-08T03:34:21.972Z,5.40
2018-07-08T03:36:56.414Z,5.53
2018-07-08T03:39:30.842Z,5.37
2018-07-08T03:42:05.244Z,5.17
2018-07-08T03:44:39.881Z,5.37
2018-07-08T03:47:14.368Z,4.97
2018-07-08T03:49:48.780Z,4.83
2018-07-08T03:52:23.303Z,5.00
2018-07-08T03:54:57.744Z,5.57
2018-07-08T03:57:32.383Z,5.37
2018-07-08T04:00:06.840Z,5.63
2018-07-08T04:02:41.682Z,5.30
2018-07-08T04:05:16.134Z,6.00
2018-07-08T04:07:50.604Z,6.37
2018-07-08T04:10:24.892Z,5.70
2018-07-08T04:12:59.743Z,5.20
2018-07-08T04:15:34.444Z,6.23
2018-07-08T04:18:09.566Z,5.30
2018-07-08T04:20:44.053Z,6.17
2018-07-08T04:23:18.727Z,5.57
2018-07-08T04:25:53.324Z,5.53
2018-07-08T04:28:28.024Z,5.33
2018-07-08T04:31:02.517Z,5.90
2018-07-08T04:33:36.915Z,5.97
2018-07-08T04:36:11.464Z,6.23
2018-07-08T04:38:46.089Z,5.57
2018-07-08T04:41:20.784Z,5.50
2018-07-08T04:43:55.342Z,6.20
2018-07-08T04:46:29.899Z,5.10
2018-07-08T04:49:04.581Z,4.70
2018-07-08T04:51:39.126Z,4.67
2018-07-08T04:54:13.705Z,5.13
2018-07-08T04:56:48.408Z,5.30
2018-07-08T04:59:22.962Z,4.63
2018-07-08T05:01:57.474Z,4.40
2018-07-08T05:04:32.060Z,4.07
2018-07-08T05:07:06.551Z,4.30
2018-07-08T05:09:41.040Z,4.43
2018-07-08T05:12:15.390Z,4.47
2018-07-08T05:14:49.786Z,5.40
2018-07-08T05:17:24.277Z,4.80
2018-07-08T05:19:58.807Z,4.10
2018-07-08T05:22:33.404Z,4.47
2018-07-08T05:25:07.680Z,4.10
2018-07-08T05:27:42.084Z,4.03
2018-07-08T05:30:16.586Z,4.43
2018-07-08T05:32:51.184Z,4.00
2018-07-08T05:35:25.547Z,3.97
2018-07-08T05:37:59.966Z,3.23
2018-07-08T05:40:34.383Z,4.13
2018-07-08T05:43:08.965Z,4.00
2018-07-08T05:45:43.432Z,3.97
2018-07-08T05:48:18.140Z,4.57
2018-07-08T05:50:52.640Z,3.90
2018-07-08T05:53:27.248Z,3.77
2018-07-08T05:56:01.624Z,3.73
2018-07-08T05:58:36.023Z,3.50
2018-07-08T06:01:10.696Z,4.07
2018-07-08T06:03:45.216Z,2.90
2018-07-08T06:06:19.708Z,3.27
2018-07-08T06:08:54.176Z,3.37
2018-07-08T06:11:28.788Z,3.10
2018-07-08T06:14:03.252Z,2.77
2018-07-08T06:16:37.731Z,2.53
2018-07-08T06:19:12.058Z,2.87
2018-07-08T06:21:46.632Z,3.10
2018-07-08T06:24:21.384Z,3.17
2018-07-08T06:26:55.772Z,2.50
2018-07-08T06:29:30.408Z,2.80
2018-07-08T06:32:05.286Z,3.30
2018-07-08T06:34:39.870Z,3.33
2018-07-08T06:37:14.255Z,2.57
2018-07-08T06:39:48.846Z,2.70
2018-07-08T06:42:23.427Z,2.40
2018-07-08T06:44:58.064Z,2.37
2018-07-08T06:47:32.596Z,2.00
2018-07-08T06:50:07.171Z,1.77
2018-07-08T06:52:41.849Z,1.50
2018-07-08T06:55:16.615Z,1.60
2018-07-08T06:57:51.164Z,1.70
2018-07-08T07:00:25.800Z,1.50
2018-07-08T07:03:00.377Z,1.70
2018-07-08T07:05:34.960Z,1.47
2018-07-08T07:08:09.630Z,1.50
2018-07-08T07:10:44.194Z,1.27
2018-07-08T07:13:18.711Z,1.87
2018-07-08T07:15:53.260Z,1.63
2018-07-08T07:18:27.688Z,1.60
2018-07-08T07:21:02.057Z,1.50
2018-07-08T07:23:36.657Z,1.20
2018-07-08T07:26:11.241Z,1.30
2018-07-08T07:28:45.857Z,1.33
2018-07-08T07:31:20.317Z,1.47
2018-07-08T07:33:55.112Z,1.40
2018-07-08T07:36:29.676Z,1.20
2018-07-08T07:39:04.761Z,1.50
2018-07-08T07:41:39.491Z,1.50
2018-07-08T07:44:14.096Z,1.47
2018-07-08T07:46:48.545Z,1.30
2018-07-08T07:49:23.116Z,1.83
2018-07-08T07:51:57.701Z,1.60
2018-07-08T07:54:32.218Z,1.80
2018-07-08T07:57:07.127Z,1.40
2018-07-08T07:59:41.644Z,1.37
2018-07-08T08:02:15.983Z,1.30
2018-07-08T08:04:50.517Z,1.27
2018-07-08T08:07:24.899Z,1.10
2018-07-08T08:09:59.328Z,1.80
2018-07-08T08:12:33.826Z,1.10
2018-07-08T08:15:08.379Z,1.20
2018-07-08T08:17:42.705Z,1.67
2018-07-08T08:20:17.248Z,1.47
2018-07-08T08:22:51.669Z,1.30
2018-07-08T08:25:25.987Z,2.60
2018-07-08T08:28:00.400Z,1.40
2018-07-08T08:30:34.920Z,1.37
2018-07-08T08:33:09.508Z,1.37
2018-07-08T08:35:43.876Z,1.77
2018-07-08T08:38:18.386Z,1.20
2018-07-08T08:40:52.701Z,1.20
2018-07-08T08:43:27.175Z,1.23
2018-07-08T08:46:01.632Z,1.43
2018-07-08T08:48:36.052Z,1.13
2018-07-08T08:51:10.627Z,1.27
2018-07-08T08:53:45.217Z,1.23
2018-07-08T08:56:19.858Z,1.00
2018-07-08T08:58:54.361Z,1.47
2018-07-08T09:01:28.772Z,1.23
2018-07-08T09:04:03.444Z,1.10
2018-07-08T09:06:38.280Z,0.97
2018-07-08T09:09:12.812Z,0.90
2018-07-08T09:11:47.222Z,1.43
2018-07-08T09:14:22.168Z,0.87
2018-07-08T09:16:56.852Z,1.03
2018-07-08T09:19:31.501Z,1.03
2018-07-08T09:22:06.588Z,1.10
2018-07-08T09:24:41.013Z,1.00
2018-07-08T09:27:15.517Z,1.20
2018-07-08T09:29:49.908Z,1.00
2018-07-08T09:32:24.359Z,1.00
2018-07-08T09:34:58.923Z,1.33
2018-07-08T09:37:33.348Z,0.97
2018-07-08T09:40:07.773Z,0.90
2018-07-08T09:42:42.245Z,0.80
2018-07-08T09:45:16.796Z,1.00
2018-07-08T09:47:51.194Z,1.10
2018-07-08T09:50:25.516Z,1.10
2018-07-08T09:52:59.921Z,0.60
2018-07-08T09:55:34.546Z,0.97
2018-07-08T09:58:08.935Z,0.77
2018-07-08T10:00:43.340Z,0.70
2018-07-08T10:03:17.788Z,1.17
2018-07-08T10:05:52.243Z,0.70
2018-07-08T10:08:27.024Z,0.80
2018-07-08T10:11:01.607Z,1.00
2018-07-08T10:13:36.269Z,1.10
2018-07-08T10:16:10.810Z,0.90
2018-07-08T10:18:45.268Z,0.87
2018-07-08T10:21:19.731Z,0.90
2018-07-08T10:23:54.244Z,5.13
2018-07-08T10:26:28.789Z,1.80
2018-07-08T10:29:03.208Z,1.10
2018-07-08T10:31:46.211Z,1.33
2018-07-08T10:34:20.727Z,1.10
2018-07-08T10:36:55.265Z,0.60
2018-07-08T10:39:29.724Z,0.90
2018-07-08T10:42:04.217Z,0.80
2018-07-08T10:44:38.741Z,0.80
2018-07-08T10:47:13.291Z,0.90
2018-07-08T10:49:47.671Z,0.87
2018-07-08T10:52:22.117Z,1.63
2018-07-08T10:54:56.401Z,1.37
2018-07-08T10:57:30.911Z,0.83
2018-07-08T11:00:05.378Z,0.90
2018-07-08T11:02:39.843Z,0.90
2018-07-08T11:05:14.273Z,1.10
2018-07-08T11:07:48.535Z,0.70
2018-07-08T11:10:22.836Z,1.00
2018-07-08T11:12:57.276Z,0.90
2018-07-08T11:15:31.603Z,1.13
2018-07-08T11:18:06.004Z,1.00
2018-07-08T11:20:40.526Z,1.10
2018-07-08T11:23:15.060Z,1.17
2018-07-08T11:25:49.444Z,1.20
2018-07-08T11:28:23.835Z,1.53
2018-07-08T11:30:58.183Z,1.20
2018-07-08T11:33:32.562Z,1.20
2018-07-08T11:36:07.103Z,1.20
2018-07-08T11:38:41.756Z,1.20
2018-07-08T11:41:16.148Z,1.10
2018-07-08T11:43:50.584Z,1.37
2018-07-08T11:46:25.127Z,0.70
2018-07-08T11:48:59.596Z,1.07
2018-07-08T11:51:34.016Z,0.80
2018-07-08T11:54:08.373Z,1.17
2018-07-08T11:56:42.931Z,1.00
2018-07-08T11:59:17.476Z,1.40
2018-07-08T12:01:52.257Z,1.10
2018-07-08T12:04:26.652Z,1.70
2018-07-08T12:07:01.122Z,1.77
2018-07-08T12:09:35.511Z,1.33
2018-07-08T12:12:09.852Z,1.73
2018-07-08T12:14:44.244Z,1.40
2018-07-08T12:17:18.479Z,1.87
2018-07-08T12:19:52.910Z,1.40
2018-07-08T12:22:27.352Z,1.43
2018-07-08T12:25:01.627Z,1.60
2018-07-08T12:27:36.274Z,1.90
2018-07-08T12:30:10.548Z,1.70
2018-07-08T12:32:44.997Z,1.90
2018-07-08T12:35:19.219Z,1.67
2018-07-08T12:37:53.491Z,1.87
2018-07-08T12:40:27.863Z,2.00
2018-07-08T12:43:02.321Z,1.97
2018-07-08T12:45:36.718Z,2.10
2018-07-08T12:48:11.138Z,1.80
2018-07-08T12:50:45.552Z,2.13
2018-07-08T12:53:19.862Z,2.17
2018-07-08T12:55:54.403Z,2.23
2018-07-08T12:58:28.685Z,2.00
2018-07-08T13:01:03.066Z,2.30
2018-07-08T13:03:37.363Z,1.80
2018-07-08T13:06:11.881Z,2.90
2018-07-08T13:08:46.316Z,2.10
2018-07-08T13:11:20.808Z,2.10
2018-07-08T13:13:55.276Z,2.10
2018-07-08T13:16:29.726Z,2.37
2018-07-08T13:19:04.259Z,2.23
2018-07-08T13:21:38.717Z,2.10
2018-07-08T13:24:13.239Z,2.23
2018-07-08T13:26:48.037Z,2.37
2018-07-08T13:29:22.488Z,2.07
2018-07-08T13:31:57.027Z,2.27
2018-07-08T13:34:31.504Z,2.33
2018-07-08T13:37:05.891Z,2.50
2018-07-08T13:39:40.149Z,2.33
2018-07-08T13:42:14.577Z,2.50
2018-07-08T13:44:48.995Z,2.10
2018-07-08T13:47:23.401Z,2.50
2018-07-08T13:49:58.158Z,2.50
2018-07-08T13:52:32.494Z,2.20
2018-07-08T13:55:06.888Z,2.73
2018-07-08T13:57:41.280Z,2.20
2018-07-08T14:00:15.741Z,2.30
2018-07-08T14:02:50.362Z,2.40
2018-07-08T14:05:24.908Z,2.37
2018-07-08T14:07:59.502Z,2.70
2018-07-08T14:10:33.868Z,2.67
2018-07-08T14:13:08.760Z,2.33
2018-07-08T14:15:43.147Z,2.50
2018-07-08T14:18:17.553Z,2.47
2018-07-08T14:20:52.062Z,2.00
2018-07-08T14:23:26.560Z,2.40
2018-07-08T14:26:00.906Z,2.70
2018-07-08T14:28:35.304Z,2.33
2018-07-08T14:31:09.933Z,2.80
2018-07-08T14:33:44.525Z,2.23
2018-07-08T14:36:19.288Z,2.00
2018-07-08T14:38:53.868Z,2.57
2018-07-08T14:41:28.193Z,2.20
2018-07-08T14:44:02.680Z,2.43
2018-07-08T14:46:37.252Z,1.90
2018-07-08T14:49:11.617Z,2.30
2018-07-08T14:51:46.346Z,2.07
2018-07-08T14:54:20.530Z,2.27
2018-07-08T14:56:55.019Z,2.10
2018-07-08T14:59:29.495Z,2.00
2018-07-08T15:02:04.051Z,2.10
2018-07-08T15:04:38.769Z,2.10
2018-07-08T15:07:13.353Z,1.90
2018-07-08T15:09:47.778Z,1.90
2018-07-08T15:12:22.208Z,2.27
2018-07-08T15:14:56.692Z,2.40
2018-07-08T15:17:31.213Z,2.00
2018-07-08T15:20:05.608Z,2.30
2018-07-08T15:22:39.982Z,2.10
2018-07-08T15:25:14.395Z,2.30
2018-07-08T15:27:48.945Z,1.90
2018-07-08T15:30:23.388Z,1.60
2018-07-08T15:32:57.853Z,2.03
2018-07-08T15:35:32.420Z,2.10
2018-07-08T15:38:06.854Z,2.00
2018-07-08T15:40:41.352Z,2.10
2018-07-08T15:43:15.750Z,1.87
2018-07-08T15:45:50.137Z,1.87
2018-07-08T15:48:24.575Z,2.03
2018-07-08T15:50:58.884Z,2.10
2018-07-08T15:53:33.294Z,1.67
2018-07-08T15:56:07.598Z,1.80
2018-07-08T15:58:41.835Z,3.20
2018-07-08T16:01:16.083Z,2.20
2018-07-08T16:03:50.400Z,2.10
2018-07-08T16:06:24.802Z,1.83
2018-07-08T16:08:59.308Z,1.70
2018-07-08T16:11:33.620Z,3.40
2018-07-08T16:14:07.876Z,2.50
2018-07-08T16:16:42.211Z,1.80
2018-07-08T16:19:16.444Z,1.90
2018-07-08T16:21:50.716Z,2.10
2018-07-08T16:24:25.415Z,1.80
2018-07-08T16:26:59.925Z,2.13
2018-07-08T16:29:34.545Z,2.10
2018-07-08T16:32:08.952Z,2.10
2018-07-08T16:34:43.556Z,1.80
2018-07-08T16:37:18.071Z,2.50
2018-07-08T16:39:52.746Z,2.10
2018-07-08T16:42:27.763Z,1.80
2018-07-08T16:45:02.144Z,1.80
2018-07-08T16:47:36.576Z,1.73
2018-07-08T16:50:11.049Z,2.33
2018-07-08T16:52:45.716Z,2.00
2018-07-08T16:55:20.240Z,1.80
2018-07-08T16:57:54.935Z,1.70
2018-07-08T17:00:29.446Z,1.40
2018-07-08T17:03:04.186Z,1.73
2018-07-08T17:05:38.649Z,1.90
2018-07-08T17:08:13.420Z,2.00
2018-07-08T17:10:48.164Z,2.10
2018-07-08T17:13:22.825Z,1.80
2018-07-08T17:15:57.492Z,1.83
2018-07-08T17:18:31.872Z,1.70
2018-07-08T17:21:06.552Z,1.83
2018-07-08T17:23:41.110Z,1.90
2018-07-08T17:26:16.632Z,1.73
2018-07-08T17:28:51.300Z,2.03
2018-07-08T17:31:25.969Z,1.77
2018-07-08T17:34:00.484Z,1.80
2018-07-08T17:36:34.964Z,1.70
2018-07-08T17:39:09.570Z,2.07
2018-07-08T17:41:44.055Z,1.70
2018-07-08T17:44:18.689Z,1.97
2018-07-08T17:46:53.209Z,1.80
2018-07-08T17:49:27.732Z,1.90
2018-07-08T17:52:02.342Z,1.80
2018-07-08T17:54:36.949Z,2.07
2018-07-08T17:57:11.354Z,2.03
2018-07-08T17:59:45.853Z,1.80
2018-07-08T18:02:20.507Z,1.97
2018-07-08T18:04:55.008Z,1.80
2018-07-08T18:07:29.392Z,2.13
2018-07-08T18:10:03.985Z,2.30
2018-07-08T18:12:38.359Z,2.13
2018-07-08T18:15:12.773Z,1.50
2018-07-08T18:17:47.423Z,1.80
2018-07-08T18:20:22.056Z,2.07
2018-07-08T18:22:56.540Z,1.87
2018-07-08T18:25:31.074Z,2.00
2018-07-08T18:28:05.633Z,2.67
2018-07-08T18:30:40.675Z,1.83
2018-07-08T18:33:15.182Z,1.90
2018-07-08T18:35:49.748Z,1.80
2018-07-08T18:38:24.523Z,1.80
2018-07-08T18:40:59.145Z,1.80
2018-07-08T18:43:33.504Z,1.70
2018-07-08T18:46:08.102Z,1.70
2018-07-08T18:48:42.722Z,1.53
2018-07-08T18:51:17.452Z,1.50
2018-07-08T18:53:52.094Z,1.60
2018-07-08T18:56:26.492Z,1.73
2018-07-08T18:59:00.953Z,1.70
2018-07-08T19:01:35.521Z,1.63
2018-07-08T19:04:10.035Z,1.97
2018-07-08T19:06:44.588Z,1.90
2018-07-08T19:09:19.089Z,1.60
2018-07-08T19:11:53.505Z,1.83
2018-07-08T19:14:27.986Z,1.67
2018-07-08T19:17:02.502Z,1.33
2018-07-08T19:19:37.038Z,1.93
2018-07-08T19:22:11.696Z,1.70
2018-07-08T19:24:46.318Z,1.63
2018-07-08T19:27:20.816Z,1.70
2018-07-08T19:29:55.340Z,1.60
2018-07-08T19:32:29.963Z,1.47
2018-07-08T19:35:04.636Z,1.40
2018-07-08T19:37:39.299Z,1.40
2018-07-08T19:40:13.772Z,1.60
2018-07-08T19:42:48.263Z,1.67
2018-07-08T19:45:22.974Z,2.40
2018-07-08T19:47:57.380Z,1.53
2018-07-08T19:50:31.887Z,1.70
2018-07-08T19:53:07.239Z,1.77
2018-07-08T19:55:41.865Z,1.80
2018-07-08T19:58:16.318Z,1.53
2018-07-08T20:00:50.857Z,1.30
2018-07-08T20:03:25.496Z,1.63
2018-07-08T20:06:00.250Z,1.50
2018-07-08T20:08:34.885Z,1.50
2018-07-08T20:11:09.392Z,2.20
2018-07-08T20:13:43.816Z,1.80
2018-07-08T20:16:18.511Z,1.60
2018-07-08T20:18:53.087Z,1.60
2018-07-08T20:21:27.689Z,1.90
2018-07-08T20:24:02.137Z,2.07
2018-07-08T20:26:36.586Z,1.97
2018-07-08T20:29:11.057Z,2.30
2018-07-08T20:31:45.576Z,1.80
2018-07-08T20:34:20.105Z,1.80
2018-07-08T20:36:54.728Z,1.70
2018-07-08T20:39:29.372Z,1.67
2018-07-08T20:42:03.932Z,1.83
2018-07-08T20:44:38.631Z,1.67
2018-07-08T20:47:13.187Z,2.30
2018-07-08T20:49:47.816Z,2.43
2018-07-08T20:52:22.307Z,1.80
2018-07-08T20:54:56.765Z,1.93
2018-07-08T20:57:31.133Z,1.80
2018-07-08T21:00:05.721Z,1.87
2018-07-08T21:02:40.412Z,2.53
2018-07-08T21:05:15.028Z,1.80
2018-07-08T21:07:49.617Z,2.00
2018-07-08T21:10:24.255Z,2.13
2018-07-08T21:12:58.901Z,2.03
2018-07-08T21:15:33.511Z,2.20
2018-07-08T21:18:08.009Z,1.80
2018-07-08T21:20:42.502Z,2.00
2018-07-08T21:23:17.133Z,2.30
2018-07-08T21:25:51.863Z,2.17
2018-07-08T21:28:26.267Z,2.20
2018-07-08T21:31:00.713Z,2.23
2018-07-08T21:33:35.383Z,2.47
2018-07-08T21:36:10.089Z,2.23
2018-07-08T21:38:44.625Z,2.53
2018-07-08T21:41:19.164Z,2.23
2018-07-08T21:43:53.853Z,2.40
2018-07-08T21:46:28.404Z,2.40
2018-07-08T21:49:02.834Z,2.50
2018-07-08T21:51:37.756Z,2.40
2018-07-08T21:54:12.357Z,3.13
2018-07-08T21:56:46.867Z,2.70
2018-07-08T21:59:21.413Z,2.30
2018-07-08T22:02:00.564Z,2.17
2018-07-08T22:04:34.909Z,2.40
2018-07-08T22:07:14.716Z,2.20
2018-07-08T22:09:49.351Z,2.17
2018-07-08T22:12:23.858Z,2.23
2018-07-08T22:14:58.425Z,2.00
2018-07-08T22:17:33.092Z,2.20
2018-07-08T22:20:07.752Z,2.80
2018-07-08T22:22:42.160Z,2.37
2018-07-08T22:25:16.757Z,2.17
2018-07-08T22:27:51.351Z,2.30
2018-07-08T22:30:25.832Z,2.20
2018-07-08T22:33:00.459Z,2.43
2018-07-08T22:35:34.788Z,2.67
2018-07-08T22:38:09.281Z,2.13
2018-07-08T22:40:43.996Z,2.17
2018-07-08T22:43:18.521Z,2.20
2018-07-08T22:45:53.095Z,2.40
2018-07-08T22:48:27.543Z,2.40
2018-07-08T22:51:01.992Z,2.40
2018-07-08T22:53:36.428Z,2.30
2018-07-08T22:56:11.096Z,2.23
2018-07-08T22:58:45.765Z,2.63
2018-07-08T23:02:35.165Z,2.10
2018-07-08T23:05:09.636Z,2.70
2018-07-08T23:07:44.225Z,2.87
2018-07-08T23:10:18.720Z,2.30
2018-07-08T23:12:53.280Z,2.43
2018-07-08T23:15:27.860Z,2.17
2018-07-08T23:18:02.503Z,2.67
2018-07-08T23:20:36.900Z,2.40
2018-07-08T23:23:11.465Z,2.83
2018-07-08T23:25:46.085Z,2.10
2018-07-08T23:28:20.450Z,2.57
2018-07-08T23:30:54.963Z,2.40
2018-07-08T23:33:29.683Z,2.70
2018-07-08T23:36:05.044Z,2.40
2018-07-08T23:38:39.717Z,2.20
2018-07-08T23:41:14.445Z,2.37
2018-07-08T23:43:49.056Z,2.50
2018-07-08T23:46:23.646Z,2.47
2018-07-08T23:48:58.296Z,2.30
2018-07-08T23:51:32.882Z,2.53
2018-07-08T23:54:07.305Z,2.70
2018-07-08T23:56:41.948Z,2.20
2018-07-08T23:59:16.381Z,2.40
